Time;durP1;ratioP1;P1;durP2;ratioP2;P2;SDS_P1;SDS_P2;PMS_P1;PMS_P2;Temp;Humidity;BMP_temperature;BMP_pressure;BME280_temperature;BME280_humidity;BME280_pressure;Samples;Min_cycle;Max_cycle;Signal;HPM_P1;HPM_P2
2022/03/20 00:00:42;;;;;;;;;;;20.20;38.00;;;;;;5064571;28;20404;-45
2022/03/20 00:03:10;;;;;;;;;;;20.30;38.00;;;;;;5065417;28;19926;-46
2022/03/20 00:05:39;;;;;;;;;;;20.30;38.00;;;;;;5067272;28;20424;-45
2022/03/20 00:08:08;;;;;;;;;;;20.30;38.00;;;;;;5068786;28;19928;-45
2022/03/20 00:10:35;;;;;;;;;;;20.20;38.00;;;;;;5091501;28;19921;-45
2022/03/20 00:13:02;;;;;;;;;;;20.20;37.90;;;;;;5088868;28;19958;-46
2022/03/20 00:15:30;;;;;;;;;;;20.20;37.90;;;;;;5093891;28;20009;-43
2022/03/20 00:17:57;;;;;;;;;;;20.20;37.90;;;;;;5100798;28;20019;-45
2022/03/20 00:20:23;;;;;;;;;;;20.20;37.90;;;;;;5068950;28;20019;-45
2022/03/20 00:22:52;;;;;;;;;;;20.20;37.90;;;;;;5101449;28;19924;-47
2022/03/20 00:25:19;;;;;;;;;;;20.20;37.90;;;;;;5066685;28;19960;-46
2022/03/20 00:27:45;;;;;;;;;;;20.30;38.00;;;;;;5062942;28;20412;-44
2022/03/20 00:30:12;;;;;;;;;;;20.20;37.90;;;;;;5089503;28;19970;-46
2022/03/20 00:32:39;;;;;;;;;;;20.20;37.90;;;;;;5063237;28;20362;-45
2022/03/20 00:35:06;;;;;;;;;;;20.20;37.90;;;;;;5067864;28;20368;-46
2022/03/20 00:37:35;;;;;;;;;;;20.20;37.90;;;;;;5064968;28;19999;-46
2022/03/20 00:40:04;;;;;;;;;;;20.20;37.90;;;;;;5054729;28;19944;-45
2022/03/20 00:42:30;;;;;;;;;;;20.20;37.90;;;;;;5066360;28;20303;-45
2022/03/20 00:45:00;;;;;;;;;;;20.20;37.90;;;;;;5066501;28;20023;-45
2022/03/20 00:47:27;;;;;;;;;;;20.20;37.90;;;;;;5059908;28;19927;-47
2022/03/20 00:49:53;;;;;;;;;;;20.20;38.40;;;;;;5067838;28;19927;-48
2022/03/20 00:52:20;;;;;;;;;;;20.20;37.80;;;;;;5067313;28;19966;-46
2022/03/20 00:54:47;;;;;;;;;;;20.20;37.80;;;;;;5066438;28;19947;-43
2022/03/20 00:57:15;;;;;;;;;;;20.20;37.80;;;;;;5060456;28;20053;-46
2022/03/20 00:59:42;;;;;;;;;;;20.20;37.80;;;;;;5061841;28;19924;-49
2022/03/20 01:02:09;;;;;;;;;;;20.20;37.80;;;;;;5076518;28;19920;-48
2022/03/20 01:04:36;;;;;;;;;;;20.20;37.80;;;;;;5063600;28;19924;-45
2022/03/20 01:07:03;;;;;;;;;;;20.20;37.90;;;;;;5068194;28;19920;-47
2022/03/20 01:09:30;;;;;;;;;;;20.20;37.80;;;;;;5066705;28;20039;-46
2022/03/20 01:11:57;;;;;;;;;;;20.20;37.80;;;;;;5066251;28;20324;-48
2022/03/20 01:14:25;;;;;;;;;;;20.20;37.80;;;;;;5063349;28;19925;-45
2022/03/20 01:16:52;;;;;;;;;;;20.20;37.80;;;;;;5050410;28;20027;-47
2022/03/20 01:19:19;;;;;;;;;;;20.20;37.80;;;;;;5077315;28;19924;-44
2022/03/20 01:21:46;;;;;;;;;;;20.20;37.80;;;;;;5066805;28;19978;-47
2022/03/20 01:24:13;;;;;;;;;;;20.20;37.80;;;;;;5066232;28;19978;-44
2022/03/20 01:26:40;;;;;;;;;;;20.20;37.80;;;;;;5067258;28;20051;-44
2022/03/20 01:29:06;;;;;;;;;;;20.20;37.80;;;;;;5067479;28;19924;-45
2022/03/20 01:31:37;;;;;;;;;;;20.20;37.80;;;;;;5099924;28;19933;-43
2022/03/20 01:34:03;;;;;;;;;;;20.20;37.80;;;;;;5060881;28;20018;-42
2022/03/20 01:36:30;;;;;;;;;;;20.20;37.80;;;;;;5065127;28;20378;-45
2022/03/20 01:38:57;;;;;;;;;;;20.20;37.70;;;;;;5056551;28;20250;-47
2022/03/20 01:41:24;;;;;;;;;;;20.20;37.70;;;;;;5098681;28;19932;-46
2022/03/20 01:43:51;;;;;;;;;;;20.20;37.70;;;;;;5066129;28;19920;-48
2022/03/20 01:46:18;;;;;;;;;;;20.20;37.70;;;;;;5068764;28;20362;-46
2022/03/20 01:48:46;;;;;;;;;;;20.20;37.70;;;;;;5068428;28;20365;-45
2022/03/20 01:51:13;;;;;;;;;;;20.20;37.70;;;;;;5066415;28;20019;-44
2022/03/20 01:53:40;;;;;;;;;;;20.20;37.70;;;;;;5064806;28;20549;-45
2022/03/20 01:56:07;;;;;;;;;;;20.20;37.70;;;;;;5066271;28;19925;-43
2022/03/20 01:58:33;;;;;;;;;;;20.20;37.70;;;;;;5065756;28;19925;-42
2022/03/20 02:01:00;;;;;;;;;;;20.20;37.70;;;;;;5064443;28;20024;-43
2022/03/20 02:03:27;;;;;;;;;;;20.20;37.70;;;;;;5065770;28;20011;-43
2022/03/20 02:05:55;;;;;;;;;;;20.20;37.70;;;;;;5065829;28;20236;-44
2022/03/20 02:08:25;;;;;;;;;;;20.20;37.70;;;;;;5056772;28;19967;-42
2022/03/20 02:10:52;;;;;;;;;;;20.20;37.70;;;;;;5080085;28;19920;-43
2022/03/20 02:13:20;;;;;;;;;;;20.20;37.70;;;;;;5067447;28;19982;-43
2022/03/20 02:15:48;;;;;;;;;;;20.20;37.70;;;;;;5062930;28;20415;-42
2022/03/20 02:18:15;;;;;;;;;;;20.20;37.70;;;;;;5091549;28;19925;-45
2022/03/20 02:20:45;;;;;;;;;;;20.20;37.70;;;;;;5067693;28;19921;-42
2022/03/20 02:23:13;;;;;;;;;;;20.20;37.70;;;;;;5055556;28;20364;-42
2022/03/20 02:25:47;;;;;;;;;;;20.20;37.70;;;;;;5068423;28;19942;-43
2022/03/20 02:28:14;;;;;;;;;;;20.20;37.70;;;;;;5059101;28;19950;-43
2022/03/20 02:30:40;;;;;;;;;;;20.20;37.70;;;;;;5065633;28;19943;-45
2022/03/20 02:33:08;;;;;;;;;;;20.20;37.70;;;;;;5063822;28;19931;-44
2022/03/20 02:35:35;;;;;;;;;;;20.20;37.70;;;;;;5073013;28;19921;-46
2022/03/20 02:38:02;;;;;;;;;;;20.20;37.70;;;;;;5066049;28;19943;-48
2022/03/20 02:40:41;;;;;;;;;;;20.20;37.60;;;;;;5066597;28;19925;-44
2022/03/20 02:43:08;;;;;;;;;;;20.20;37.70;;;;;;5093943;28;19920;-46
2022/03/20 02:45:35;;;;;;;;;;;20.20;37.60;;;;;;5097913;28;19982;-42
2022/03/20 02:48:06;;;;;;;;;;;20.20;37.60;;;;;;5060131;28;22784;-43
2022/03/20 02:50:34;;;;;;;;;;;20.20;37.60;;;;;;5097569;28;19921;-44
2022/03/20 02:53:02;;;;;;;;;;;20.20;37.60;;;;;;5065233;28;20003;-46
2022/03/20 02:55:29;;;;;;;;;;;20.20;37.60;;;;;;5065442;28;19960;-44
2022/03/20 02:57:57;;;;;;;;;;;20.20;37.60;;;;;;5064668;28;19974;-44
2022/03/20 03:00:28;;;;;;;;;;;20.20;37.50;;;;;;5064108;28;19947;-43
2022/03/20 03:02:55;;;;;;;;;;;20.20;37.50;;;;;;5065410;28;19925;-47
2022/03/20 03:05:24;;;;;;;;;;;20.20;37.50;;;;;;5059891;28;19927;-51
2022/03/20 03:13:23;;;;;;;;;;;20.20;37.50;;;;;;5064647;28;19971;-47
2022/03/20 03:15:52;;;;;;;;;;;20.20;37.50;;;;;;5063009;28;19921;-46
2022/03/20 03:18:20;;;;;;;;;;;20.20;37.50;;;;;;5082031;28;19924;-45
2022/03/20 03:20:50;;;;;;;;;;;20.20;37.50;;;;;;5065094;28;19938;-44
2022/03/20 03:23:17;;;;;;;;;;;20.20;37.40;;;;;;5057046;28;20020;-43
2022/03/20 03:25:43;;;;;;;;;;;20.20;37.40;;;;;;5065001;28;19927;-45
2022/03/20 03:28:11;;;;;;;;;;;20.20;37.40;;;;;;5055724;28;19924;-46
2022/03/20 03:30:39;;;;;;;;;;;20.20;37.70;;;;;;5072335;28;20047;-44
2022/03/20 03:33:06;;;;;;;;;;;20.20;37.30;;;;;;5064314;28;20122;-45
2022/03/20 03:35:47;;;;;;;;;;;20.20;37.30;;;;;;5060474;28;19921;-43
2022/03/20 03:38:14;;;;;;;;;;;20.20;37.30;;;;;;5045165;28;19921;-46
2022/03/20 03:40:41;;;;;;;;;;;20.20;37.30;;;;;;5057905;28;19920;-47
2022/03/20 03:43:09;;;;;;;;;;;20.10;37.20;;;;;;5078290;28;19928;-47
2022/03/20 03:45:38;;;;;;;;;;;20.10;37.20;;;;;;5067090;28;19927;-45
2022/03/20 03:48:07;;;;;;;;;;;20.20;37.30;;;;;;5068532;28;20400;-45
2022/03/20 03:50:34;;;;;;;;;;;20.20;37.30;;;;;;5066919;28;20323;-44
2022/03/20 03:53:00;;;;;;;;;;;20.10;37.10;;;;;;5067775;28;20357;-42
2022/03/20 03:55:27;;;;;;;;;;;20.10;37.10;;;;;;5063925;28;19928;-49
2022/03/20 03:57:54;;;;;;;;;;;20.20;37.20;;;;;;5082624;28;19928;-46
2022/03/20 04:00:21;;;;;;;;;;;20.20;37.20;;;;;;5090002;28;19930;-42
2022/03/20 04:02:48;;;;;;;;;;;20.10;37.10;;;;;;5062010;28;19924;-47
2022/03/20 04:05:17;;;;;;;;;;;20.10;37.10;;;;;;5068203;28;19920;-46
2022/03/20 04:07:44;;;;;;;;;;;20.10;37.10;;;;;;5068638;28;19924;-48
2022/03/20 04:10:11;;;;;;;;;;;20.10;37.00;;;;;;5068027;28;19963;-44
2022/03/20 04:12:37;;;;;;;;;;;20.10;37.00;;;;;;5079259;28;20031;-45
2022/03/20 04:15:05;;;;;;;;;;;20.10;37.10;;;;;;5088214;28;19928;-48
2022/03/20 04:17:31;;;;;;;;;;;20.10;37.00;;;;;;5062672;28;19924;-46
2022/03/20 04:20:01;;;;;;;;;;;20.20;37.10;;;;;;5066277;28;19974;-44
2022/03/20 04:22:29;;;;;;;;;;;20.10;37.00;;;;;;5061808;28;19920;-44
2022/03/20 04:24:55;;;;;;;;;;;20.10;37.00;;;;;;5069503;28;19925;-43
2022/03/20 04:27:22;;;;;;;;;;;20.10;37.00;;;;;;5066662;28;20011;-47
2022/03/20 04:29:49;;;;;;;;;;;20.10;37.00;;;;;;5101022;28;20540;-47
2022/03/20 04:32:16;;;;;;;;;;;20.10;37.00;;;;;;5067828;28;20317;-44
2022/03/20 04:34:43;;;;;;;;;;;20.10;37.00;;;;;;5064182;28;20014;-46
2022/03/20 04:37:13;;;;;;;;;;;20.10;37.00;;;;;;5066770;28;19958;-46
2022/03/20 04:39:41;;;;;;;;;;;20.10;37.00;;;;;;5050224;28;19935;-47
2022/03/20 04:42:09;;;;;;;;;;;20.10;37.00;;;;;;5066234;28;19920;-45
2022/03/20 04:44:39;;;;;;;;;;;20.10;37.00;;;;;;5069404;28;19924;-44
2022/03/20 04:58:29;;;;;;;;;;;20.10;37.00;;;;;;5067595;28;20258;-44
2022/03/20 05:00:55;;;;;;;;;;;20.10;36.90;;;;;;5086660;28;19921;-43
2022/03/20 05:03:22;;;;;;;;;;;20.10;36.90;;;;;;5067827;28;20012;-43
2022/03/20 05:05:49;;;;;;;;;;;20.10;36.80;;;;;;5067599;28;19974;-43
2022/03/20 05:08:16;;;;;;;;;;;20.10;36.80;;;;;;5068510;28;19974;-44
2022/03/20 05:13:30;;;;;;;;;;;20.10;36.80;;;;;;5068587;28;20294;-44
2022/03/20 05:15:57;;;;;;;;;;;20.10;36.80;;;;;;5066439;28;19947;-43
2022/03/20 05:18:23;;;;;;;;;;;20.10;36.70;;;;;;5065665;28;19933;-44
2022/03/20 05:20:52;;;;;;;;;;;20.10;36.80;;;;;;5066090;28;20007;-43
2022/03/20 05:23:19;;;;;;;;;;;20.10;36.70;;;;;;5086464;28;19931;-46
2022/03/20 05:25:48;;;;;;;;;;;20.10;36.70;;;;;;5066313;28;19986;-46
2022/03/20 05:28:15;;;;;;;;;;;20.10;36.70;;;;;;5066654;28;20042;-48
2022/03/20 05:30:42;;;;;;;;;;;20.10;36.60;;;;;;5066553;28;19920;-47
2022/03/20 05:33:10;;;;;;;;;;;20.10;36.60;;;;;;5055675;28;20595;-45
2022/03/20 05:35:37;;;;;;;;;;;20.10;36.60;;;;;;5085057;28;20093;-42
2022/03/20 05:38:04;;;;;;;;;;;20.10;36.60;;;;;;5063009;28;20007;-43
2022/03/20 05:40:31;;;;;;;;;;;20.10;36.60;;;;;;5096315;28;20289;-43
2022/03/20 05:43:00;;;;;;;;;;;20.10;36.60;;;;;;5062277;28;20289;-44
2022/03/20 05:45:27;;;;;;;;;;;20.10;36.60;;;;;;5060995;28;19925;-43
2022/03/20 05:47:54;;;;;;;;;;;20.10;36.50;;;;;;5094084;28;20320;-43
2022/03/20 05:50:23;;;;;;;;;;;20.10;36.50;;;;;;5066510;28;20023;-43
2022/03/20 05:52:50;;;;;;;;;;;20.10;36.50;;;;;;5058150;28;20297;-43
2022/03/20 05:55:17;;;;;;;;;;;20.10;36.50;;;;;;5055497;28;19921;-46
2022/03/20 06:00:30;;;;;;;;;;;20.10;36.50;;;;;;5061159;28;19936;-44
2022/03/20 06:02:57;;;;;;;;;;;20.10;36.50;;;;;;5058914;28;20040;-45
2022/03/20 06:05:24;;;;;;;;;;;20.10;36.50;;;;;;5058202;28;19921;-43
2022/03/20 06:07:52;;;;;;;;;;;20.10;36.50;;;;;;5060370;28;20300;-43
2022/03/20 06:10:19;;;;;;;;;;;20.10;36.40;;;;;;5096880;28;20020;-43
2022/03/20 06:12:45;;;;;;;;;;;20.10;36.40;;;;;;5061431;28;19967;-45
2022/03/20 06:15:12;;;;;;;;;;;20.10;36.40;;;;;;5059280;28;19924;-43
2022/03/20 06:17:41;;;;;;;;;;;20.10;36.40;;;;;;5057716;28;19928;-45
2022/03/20 06:20:11;;;;;;;;;;;20.10;36.40;;;;;;5056126;28;19920;-45
2022/03/20 06:22:38;;;;;;;;;;;20.10;36.40;;;;;;5062358;28;19994;-44
2022/03/20 06:25:05;;;;;;;;;;;20.10;36.40;;;;;;5090907;28;19959;-45
2022/03/20 06:27:43;;;;;;;;;;;20.10;36.40;;;;;;5062937;28;19925;-44
2022/03/20 06:30:11;;;;;;;;;;;20.10;36.40;;;;;;5058760;28;19928;-42
2022/03/20 06:32:38;;;;;;;;;;;20.10;36.40;;;;;;5059007;28;19927;-45
2022/03/20 06:35:07;;;;;;;;;;;20.10;36.30;;;;;;5063955;28;19955;-45
2022/03/20 06:37:37;;;;;;;;;;;20.10;36.30;;;;;;5059928;28;19924;-45
2022/03/20 06:40:04;;;;;;;;;;;20.10;36.30;;;;;;5063292;28;19927;-42
2022/03/20 06:42:32;;;;;;;;;;;20.10;36.30;;;;;;5062681;28;20409;-43
2022/03/20 06:44:59;;;;;;;;;;;20.10;36.30;;;;;;5062922;28;20369;-43
2022/03/20 06:47:26;;;;;;;;;;;20.10;36.30;;;;;;5060469;28;19920;-45
2022/03/20 06:49:53;;;;;;;;;;;20.10;36.30;;;;;;5060803;28;19921;-44
2022/03/20 06:52:23;;;;;;;;;;;20.10;36.30;;;;;;5071191;28;19924;-43
2022/03/20 06:54:50;;;;;;;;;;;20.10;36.20;;;;;;5092507;28;19933;-43
2022/03/20 06:57:20;;;;;;;;;;;20.10;36.20;;;;;;5061893;28;20007;-44
2022/03/20 06:59:49;;;;;;;;;;;20.10;36.20;;;;;;5060568;28;20385;-43
2022/03/20 07:02:21;;;;;;;;;;;20.10;36.20;;;;;;5063361;28;19929;-49
2022/03/20 07:04:48;;;;;;;;;;;20.10;36.20;;;;;;5063036;28;20408;-49
2022/03/20 07:07:16;;;;;;;;;;;20.10;36.20;;;;;;5064578;28;19927;-44
2022/03/20 07:09:44;;;;;;;;;;;20.10;36.10;;;;;;5060434;28;19932;-46
2022/03/20 07:12:11;;;;;;;;;;;20.10;36.10;;;;;;5063898;28;19928;-48
2022/03/20 07:14:40;;;;;;;;;;;20.10;36.10;;;;;;5063169;28;19936;-44
2022/03/20 07:17:09;;;;;;;;;;;20.10;36.10;;;;;;5063939;28;19920;-47
2022/03/20 07:19:37;;;;;;;;;;;20.10;36.10;;;;;;5062526;28;19956;-45
2022/03/20 07:22:04;;;;;;;;;;;20.10;36.00;;;;;;5064649;28;19925;-45
2022/03/20 07:24:31;;;;;;;;;;;20.10;36.00;;;;;;5062550;28;20251;-50
2022/03/20 07:29:43;;;;;;;;;;;20.10;36.00;;;;;;5062764;28;19951;-47
2022/03/20 07:32:10;;;;;;;;;;;20.10;35.90;;;;;;5065666;28;20328;-44
2022/03/20 07:34:37;;;;;;;;;;;20.10;35.90;;;;;;5062681;28;20012;-48
2022/03/20 07:37:05;;;;;;;;;;;20.10;36.00;;;;;;5064358;28;19927;-47
2022/03/20 07:39:32;;;;;;;;;;;20.10;35.90;;;;;;5063246;28;19920;-46
2022/03/20 07:42:00;;;;;;;;;;;20.10;35.90;;;;;;5062480;28;19990;-45
2022/03/20 07:44:29;;;;;;;;;;;20.10;35.80;;;;;;5062084;28;19925;-46
2022/03/20 07:46:56;;;;;;;;;;;20.10;35.80;;;;;;5065956;28;19987;-43
2022/03/20 07:49:23;;;;;;;;;;;20.10;35.80;;;;;;5063113;28;20022;-47
2022/03/20 07:51:50;;;;;;;;;;;20.10;35.80;;;;;;5071268;28;20020;-49
2022/03/20 07:54:17;;;;;;;;;;;20.10;35.80;;;;;;5063084;28;20026;-48
2022/03/20 07:56:43;;;;;;;;;;;20.10;35.80;;;;;;5065764;28;19929;-45
2022/03/20 07:59:12;;;;;;;;;;;20.10;35.80;;;;;;5062082;28;19920;-45
2022/03/20 08:01:38;;;;;;;;;;;20.10;35.80;;;;;;5065635;28;20331;-46
2022/03/20 08:04:06;;;;;;;;;;;20.10;35.80;;;;;;5066984;28;20346;-44
2022/03/20 08:06:32;;;;;;;;;;;20.10;35.80;;;;;;5064933;28;19931;-44
2022/03/20 08:08:59;;;;;;;;;;;20.10;35.80;;;;;;5065428;28;19935;-48
2022/03/20 08:11:26;;;;;;;;;;;20.10;35.70;;;;;;5064608;28;19921;-45
2022/03/20 08:13:52;;;;;;;;;;;20.10;35.70;;;;;;5069316;28;19964;-44
2022/03/20 08:16:22;;;;;;;;;;;20.10;35.70;;;;;;5067095;28;20409;-48
2022/03/20 08:18:48;;;;;;;;;;;20.10;35.70;;;;;;5061271;28;19920;-45
2022/03/20 08:21:15;;;;;;;;;;;20.10;35.70;;;;;;5065477;28;19921;-47
2022/03/20 08:23:42;;;;;;;;;;;20.10;35.80;;;;;;5063222;28;20300;-44
2022/03/20 08:26:09;;;;;;;;;;;20.10;35.70;;;;;;5065903;28;19920;-45
2022/03/20 08:28:37;;;;;;;;;;;20.10;35.70;;;;;;5066988;28;19931;-43
2022/03/20 08:31:03;;;;;;;;;;;20.10;35.70;;;;;;5061733;28;19925;-46
2022/03/20 08:33:32;;;;;;;;;;;20.10;35.60;;;;;;5086199;28;19928;-43
2022/03/20 08:35:58;;;;;;;;;;;20.10;35.60;;;;;;5068707;28;20369;-45
2022/03/20 08:38:25;;;;;;;;;;;20.10;35.60;;;;;;5067890;28;20438;-46
2022/03/20 08:40:52;;;;;;;;;;;20.10;35.60;;;;;;5070468;28;20403;-45
2022/03/20 08:43:18;;;;;;;;;;;20.10;36.20;;;;;;5066641;28;20039;-43
2022/03/20 08:45:46;;;;;;;;;;;20.10;35.60;;;;;;5076902;28;19920;-43
2022/03/20 08:48:13;;;;;;;;;;;20.10;35.70;;;;;;5069020;28;19924;-46
2022/03/20 08:50:44;;;;;;;;;;;20.10;35.70;;;;;;5065368;28;20015;-43
2022/03/20 08:53:11;;;;;;;;;;;20.10;35.70;;;;;;5063853;28;19920;-44
2022/03/20 08:55:37;;;;;;;;;;;20.10;35.70;;;;;;5048584;28;19942;-44
2022/03/20 08:58:05;;;;;;;;;;;20.10;35.50;;;;;;5084691;28;20350;-45
2022/03/20 09:00:33;;;;;;;;;;;20.10;34.30;;;;;;5063286;28;20289;-47
2022/03/20 09:02:59;;;;;;;;;;;20.10;32.50;;;;;;5096150;28;20066;-46
2022/03/20 09:05:26;;;;;;;;;;;20.00;31.60;;;;;;5065086;28;19963;-46
2022/03/20 09:07:57;;;;;;;;;;;20.00;31.50;;;;;;5061486;28;19951;-49
2022/03/20 09:10:24;;;;;;;;;;;20.00;31.70;;;;;;5069699;28;19920;-47
2022/03/20 09:12:51;;;;;;;;;;;20.00;32.00;;;;;;5062831;28;19935;-50
2022/03/20 09:15:18;;;;;;;;;;;20.00;32.30;;;;;;5064701;28;19921;-45
2022/03/20 09:20:30;;;;;;;;;;;19.90;32.80;;;;;;5062838;28;19983;-47
2022/03/20 09:22:58;;;;;;;;;;;19.90;33.00;;;;;;5064387;28;19921;-42
2022/03/20 09:25:25;;;;;;;;;;;19.90;33.20;;;;;;5058255;28;20245;-46
2022/03/20 09:27:52;;;;;;;;;;;19.90;33.40;;;;;;5054830;28;19960;-43
2022/03/20 09:30:19;;;;;;;;;;;19.90;33.50;;;;;;5061511;28;19965;-45
2022/03/20 09:32:46;;;;;;;;;;;20.00;33.70;;;;;;5091614;28;19939;-43
2022/03/20 09:35:13;;;;;;;;;;;19.90;33.70;;;;;;5071116;28;19928;-49
2022/03/20 09:37:39;;;;;;;;;;;20.00;33.90;;;;;;5062176;28;19928;-45
2022/03/20 09:40:09;;;;;;;;;;;19.90;34.00;;;;;;5072004;28;20048;-43
2022/03/20 09:42:36;;;;;;;;;;;20.00;34.10;;;;;;5068899;28;19927;-45
2022/03/20 09:45:03;;;;;;;;;;;20.00;34.10;;;;;;5065610;28;20016;-44
2022/03/20 09:47:30;;;;;;;;;;;20.00;34.20;;;;;;5091654;28;19995;-48
2022/03/20 09:49:57;;;;;;;;;;;20.00;34.20;;;;;;5062034;28;20015;-45
2022/03/20 09:52:25;;;;;;;;;;;20.00;34.30;;;;;;5059228;28;19986;-45
2022/03/20 09:54:52;;;;;;;;;;;20.00;34.40;;;;;;5063603;28;20280;-45
2022/03/20 09:57:20;;;;;;;;;;;20.00;34.40;;;;;;5067983;28;19920;-46
2022/03/20 09:59:48;;;;;;;;;;;20.00;34.40;;;;;;5060158;28;19967;-46
2022/03/20 10:02:15;;;;;;;;;;;20.00;34.50;;;;;;5063613;28;19968;-45
2022/03/20 10:04:54;;;;;;;;;;;20.00;34.40;;;;;;5059755;28;19979;-42
2022/03/20 10:07:22;;;;;;;;;;;20.00;34.50;;;;;;5054748;28;19940;-49
2022/03/20 10:10:03;;;;;;;;;;;20.00;34.50;;;;;;5065157;28;20107;-45
2022/03/20 10:12:35;;;;;;;;;;;20.00;34.50;;;;;;5061943;28;19924;-44
2022/03/20 10:15:02;;;;;;;;;;;20.00;34.50;;;;;;5064517;28;19921;-43
2022/03/20 10:17:29;;;;;;;;;;;20.00;34.50;;;;;;5095512;28;19963;-45
2022/03/20 10:19:56;;;;;;;;;;;20.00;34.50;;;;;;5060162;28;19958;-45
2022/03/20 10:22:25;;;;;;;;;;;20.00;34.50;;;;;;5061810;28;20838;-46
2022/03/20 10:24:52;;;;;;;;;;;20.00;34.60;;;;;;5057275;28;19925;-48
2022/03/20 10:27:19;;;;;;;;;;;20.00;34.60;;;;;;5067505;28;19950;-47
2022/03/20 10:29:51;;;;;;;;;;;20.00;34.60;;;;;;5068162;28;19924;-49
2022/03/20 10:32:18;;;;;;;;;;;20.00;34.60;;;;;;5064278;28;20305;-47
2022/03/20 10:34:50;;;;;;;;;;;20.00;34.60;;;;;;5063405;28;20428;-45
2022/03/20 10:37:17;;;;;;;;;;;20.00;34.60;;;;;;5061715;28;19968;-48
2022/03/20 10:39:44;;;;;;;;;;;20.00;34.60;;;;;;5061425;28;19928;-44
2022/03/20 10:42:11;;;;;;;;;;;20.10;34.70;;;;;;5060326;28;19928;-46
2022/03/20 10:44:38;;;;;;;;;;;20.00;34.70;;;;;;5092827;28;19924;-47
2022/03/20 10:47:10;;;;;;;;;;;20.00;34.60;;;;;;5097394;28;19931;-49
2022/03/20 10:49:37;;;;;;;;;;;20.10;34.70;;;;;;5096306;28;20015;-45
2022/03/20 10:52:04;;;;;;;;;;;20.00;34.70;;;;;;5072389;28;19938;-44
2022/03/20 10:54:38;;;;;;;;;;;20.10;34.80;;;;;;5060822;28;19928;-47
2022/03/20 10:57:06;;;;;;;;;;;20.10;34.80;;;;;;5060548;28;19956;-46
2022/03/20 10:59:33;;;;;;;;;;;20.10;34.80;;;;;;5061218;28;20356;-43
2022/03/20 11:02:00;;;;;;;;;;;20.10;34.80;;;;;;5063534;28;19932;-48
2022/03/20 11:04:28;;;;;;;;;;;20.10;34.80;;;;;;5061941;28;20023;-44
2022/03/20 11:06:57;;;;;;;;;;;20.10;34.80;;;;;;5064753;28;20093;-44
2022/03/20 11:09:24;;;;;;;;;;;20.10;34.80;;;;;;5057345;28;19929;-44
2022/03/20 11:11:51;;;;;;;;;;;20.10;34.90;;;;;;5065103;28;20258;-44
2022/03/20 11:14:19;;;;;;;;;;;20.10;34.90;;;;;;5063466;28;20197;-47
2022/03/20 11:16:47;;;;;;;;;;;20.10;35.00;;;;;;5085122;28;19924;-43
2022/03/20 11:19:15;;;;;;;;;;;20.10;35.00;;;;;;5066486;28;19928;-46
2022/03/20 11:21:45;;;;;;;;;;;20.10;35.00;;;;;;5065650;28;20254;-44
2022/03/20 11:24:12;;;;;;;;;;;20.10;35.00;;;;;;5062757;28;19920;-45
2022/03/20 11:26:38;;;;;;;;;;;20.10;35.00;;;;;;5066448;28;21068;-42
2022/03/20 11:29:07;;;;;;;;;;;20.10;35.00;;;;;;5100157;28;19924;-47
2022/03/20 11:31:37;;;;;;;;;;;20.10;35.10;;;;;;5064388;28;19989;-49
2022/03/20 11:34:04;;;;;;;;;;;20.10;35.10;;;;;;5065235;28;20373;-45
2022/03/20 11:36:31;;;;;;;;;;;20.10;35.10;;;;;;5081943;28;19956;-48
2022/03/20 11:39:11;;;;;;;;;;;20.10;35.10;;;;;;5066599;28;19950;-47
2022/03/20 11:41:38;;;;;;;;;;;20.10;35.10;;;;;;5047877;28;19967;-45
2022/03/20 11:44:16;;;;;;;;;;;20.10;35.10;;;;;;5065464;28;19921;-47
2022/03/20 11:46:44;;;;;;;;;;;20.10;35.10;;;;;;5060527;28;20381;-48
2022/03/20 11:49:20;;;;;;;;;;;20.10;35.10;;;;;;5065248;28;19921;-48
2022/03/20 11:51:57;;;;;;;;;;;20.10;35.10;;;;;;5066707;28;19974;-43
2022/03/20 11:54:32;;;;;;;;;;;20.10;35.10;;;;;;5064915;28;20405;-43
2022/03/20 11:57:00;;;;;;;;;;;20.10;35.10;;;;;;5065885;28;19974;-46
2022/03/20 11:59:45;;;;;;;;;;;20.10;35.10;;;;;;5083347;28;20296;-47
2022/03/20 12:02:13;;;;;;;;;;;20.10;35.10;;;;;;5078616;28;19921;-43
2022/03/20 12:04:42;;;;;;;;;;;20.10;35.10;;;;;;5060640;28;19931;-46
2022/03/20 12:07:11;;;;;;;;;;;20.10;35.10;;;;;;5069718;28;19927;-45
2022/03/20 12:09:42;;;;;;;;;;;20.10;35.10;;;;;;5103569;28;19920;-47
2022/03/20 12:12:21;;;;;;;;;;;20.10;35.10;;;;;;5062577;28;19974;-48
2022/03/20 12:14:53;;;;;;;;;;;20.10;35.20;;;;;;5067265;28;20449;-46
2022/03/20 12:17:20;;;;;;;;;;;20.10;35.20;;;;;;5099186;28;20275;-46
2022/03/20 12:19:48;;;;;;;;;;;20.10;35.20;;;;;;5067634;28;19920;-46
2022/03/20 12:22:18;;;;;;;;;;;20.20;35.30;;;;;;5066300;28;20015;-48
2022/03/20 12:25:04;;;;;;;;;;;20.10;35.00;;;;;;5065475;28;19928;-44
2022/03/20 12:27:55;;;;;;;;;;;20.10;34.40;;;;;;5065380;28;19997;-43
2022/03/20 12:30:34;;;;;;;;;;;20.10;33.50;;;;;;5101465;28;19924;-44
2022/03/20 12:33:02;;;;;;;;;;;20.10;32.90;;;;;;5069438;28;19964;-45
2022/03/20 12:35:30;;;;;;;;;;;20.10;32.50;;;;;;5066388;28;20044;-47
2022/03/20 12:37:57;;;;;;;;;;;20.10;32.00;;;;;;5064618;28;19920;-44
2022/03/20 12:40:26;;;;;;;;;;;20.00;31.60;;;;;;5060457;28;19924;-45
2022/03/20 12:42:57;;;;;;;;;;;20.00;31.30;;;;;;5054613;28;19920;-43
2022/03/20 12:45:24;;;;;;;;;;;20.00;31.00;;;;;;5098462;28;19928;-44
2022/03/20 12:47:55;;;;;;;;;;;20.00;30.70;;;;;;5068364;28;19924;-44
2022/03/20 12:50:23;;;;;;;;;;;19.90;30.40;;;;;;5064224;28;19939;-43
2022/03/20 12:52:49;;;;;;;;;;;19.90;30.30;;;;;;5073877;28;19925;-42
2022/03/20 12:55:17;;;;;;;;;;;19.90;30.10;;;;;;5066371;28;20599;-45
2022/03/20 12:57:48;;;;;;;;;;;19.90;30.00;;;;;;5072674;28;19924;-41
2022/03/20 13:00:16;;;;;;;;;;;19.90;30.00;;;;;;5070597;28;19921;-45
2022/03/20 13:02:59;;;;;;;;;;;19.90;29.90;;;;;;5076286;28;19981;-43
2022/03/20 13:05:25;;;;;;;;;;;19.90;29.80;;;;;;5062963;28;19950;-45
2022/03/20 13:07:53;;;;;;;;;;;19.90;29.60;;;;;;5067722;28;19925;-43
2022/03/20 13:10:20;;;;;;;;;;;19.80;29.40;;;;;;5067100;28;19947;-42
2022/03/20 13:12:52;;;;;;;;;;;19.80;29.40;;;;;;5068141;28;19974;-43
2022/03/20 13:15:23;;;;;;;;;;;19.80;29.30;;;;;;5072031;28;19943;-42
2022/03/20 13:17:50;;;;;;;;;;;19.80;29.20;;;;;;5064320;28;20300;-44
2022/03/20 13:20:17;;;;;;;;;;;19.80;29.10;;;;;;5084861;28;19925;-44
2022/03/20 13:22:44;;;;;;;;;;;19.80;29.10;;;;;;5067737;28;20019;-42
2022/03/20 13:25:14;;;;;;;;;;;19.80;29.00;;;;;;5064600;28;20015;-43
2022/03/20 13:27:43;;;;;;;;;;;19.80;29.00;;;;;;5089523;28;19927;-45
2022/03/20 13:30:11;;;;;;;;;;;19.80;28.90;;;;;;5064625;28;20315;-45
2022/03/20 13:32:38;;;;;;;;;;;19.70;28.80;;;;;;5072680;28;20707;-46
2022/03/20 13:35:05;;;;;;;;;;;19.80;28.90;;;;;;5070655;28;19920;-47
2022/03/20 13:37:32;;;;;;;;;;;19.70;28.90;;;;;;5059311;28;20019;-44
2022/03/20 13:39:59;;;;;;;;;;;19.70;28.90;;;;;;5075923;28;19940;-46
2022/03/20 13:42:29;;;;;;;;;;;19.70;28.90;;;;;;5048264;28;19925;-44
2022/03/20 13:44:56;;;;;;;;;;;19.70;28.90;;;;;;5048604;28;19974;-50
2022/03/20 13:47:25;;;;;;;;;;;19.70;28.90;;;;;;5065587;28;19964;-46
2022/03/20 13:49:53;;;;;;;;;;;19.70;28.80;;;;;;5068271;28;20320;-46
2022/03/20 13:52:28;;;;;;;;;;;19.70;28.80;;;;;;5066636;28;19920;-45
2022/03/20 13:55:01;;;;;;;;;;;19.70;28.80;;;;;;5064583;28;20304;-46
2022/03/20 13:57:30;;;;;;;;;;;19.70;28.80;;;;;;5066864;28;19924;-43
2022/03/20 13:59:59;;;;;;;;;;;19.70;28.80;;;;;;5064850;28;19970;-47
2022/03/20 14:02:36;;;;;;;;;;;19.70;28.90;;;;;;5101147;28;19921;-47
2022/03/20 14:05:10;;;;;;;;;;;19.70;28.90;;;;;;5064053;28;19924;-43
2022/03/20 14:07:37;;;;;;;;;;;19.70;28.90;;;;;;5049412;28;20011;-43
2022/03/20 14:10:09;;;;;;;;;;;19.70;28.90;;;;;;5058573;28;19932;-43
2022/03/20 14:12:37;;;;;;;;;;;19.70;28.80;;;;;;5079556;28;20118;-43
2022/03/20 14:15:09;;;;;;;;;;;19.70;28.80;;;;;;5081182;28;19924;-45
2022/03/20 14:17:41;;;;;;;;;;;19.70;28.80;;;;;;5097774;28;19920;-45
2022/03/20 14:20:12;;;;;;;;;;;19.70;28.80;;;;;;5065923;28;20018;-47
2022/03/20 14:22:48;;;;;;;;;;;19.70;28.70;;;;;;5063945;28;19978;-46
2022/03/20 14:25:35;;;;;;;;;;;19.70;28.70;;;;;;5061952;28;19920;-45
2022/03/20 14:28:01;;;;;;;;;;;19.70;28.60;;;;;;5063994;28;20359;-46
2022/03/20 14:41:35;;;;;;;;;;;19.70;28.20;;;;;;5046174;28;20246;-42
2022/03/20 14:44:05;;;;;;;;;;;19.70;28.10;;;;;;5068043;28;19925;-44
2022/03/20 14:46:32;;;;;;;;;;;19.70;28.00;;;;;;5064730;28;19947;-45
2022/03/20 14:49:00;;;;;;;;;;;19.70;28.00;;;;;;5066121;28;19927;-42
2022/03/20 14:51:27;;;;;;;;;;;19.60;27.90;;;;;;5090347;28;19983;-43
2022/03/20 14:53:54;;;;;;;;;;;19.60;27.90;;;;;;5063985;28;19925;-43
2022/03/20 14:56:21;;;;;;;;;;;19.60;28.10;;;;;;5061132;28;19955;-44
2022/03/20 14:58:48;;;;;;;;;;;19.60;28.20;;;;;;5065012;28;19928;-45
2022/03/20 15:01:16;;;;;;;;;;;19.70;28.50;;;;;;5059267;28;19921;-43